Time;durP1;ratioP1;P1;durP2;ratioP2;P2;SDS_P1;SDS_P2;PMS_P1;PMS_P2;Temp;Humidity;BMP_temperature;BMP_pressure;BME280_temperature;BME280_humidity;BME280_pressure;Samples;Min_cycle;Max_cycle;Signal;HPM_P1;HPM_P2
2022/08/24 00:01:36;;;;;;;14.88;13.40;;;;;;;22.29;76.61;101602.22;5254388;28;20028;-79
2022/08/24 00:04:08;;;;;;;14.90;13.18;;;;;;;22.35;76.65;101597.09;5254537;28;20067;-80
2022/08/24 00:06:39;;;;;;;16.83;15.13;;;;;;;22.46;75.98;101604.03;5253526;28;20075;-79
2022/08/24 00:09:10;;;;;;;16.20;14.50;;;;;;;22.43;75.70;101593.66;5253473;28;20021;-80
2022/08/24 00:11:41;;;;;;;17.23;15.40;;;;;;;22.39;76.25;101600.31;5252107;28;20415;-80
2022/08/24 00:14:13;;;;;;;19.27;17.27;;;;;;;22.43;76.45;101603.50;5254291;28;20087;-79
2022/08/24 00:16:45;;;;;;;18.30;16.38;;;;;;;22.36;76.78;101605.91;5252359;28;20491;-80
2022/08/24 00:19:16;;;;;;;18.42;16.65;;;;;;;22.41;76.45;101608.16;5252382;28;20121;-80
2022/08/24 00:21:48;;;;;;;18.60;16.77;;;;;;;22.38;76.52;101611.94;5253900;28;20126;-80
2022/08/24 00:24:19;;;;;;;18.80;17.00;;;;;;;22.15;78.35;101617.72;5252916;28;20024;-80
2022/08/24 00:26:52;;;;;;;19.23;17.33;;;;;;;22.03;79.67;101618.94;5254235;28;20383;-80
2022/08/24 00:29:24;;;;;;;19.63;17.58;;;;;;;22.10;78.90;101610.19;5253232;28;20063;-80
2022/08/24 00:31:55;;;;;;;20.25;18.25;;;;;;;22.14;78.79;101616.06;5253882;28;20025;-80
2022/08/24 00:34:27;;;;;;;19.88;17.98;;;;;;;22.17;78.54;101626.41;5253551;28;20025;-81
2022/08/24 00:36:59;;;;;;;18.67;16.92;;;;;;;22.04;79.53;101624.13;5252583;28;20033;-81
2022/08/24 00:39:30;;;;;;;19.08;17.38;;;;;;;22.08;79.41;101627.34;5251805;28;20067;-79
2022/08/24 00:42:01;;;;;;;21.88;19.70;;;;;;;21.93;80.32;101625.16;5253577;28;20017;-78
2022/08/24 00:44:33;;;;;;;21.73;19.52;;;;;;;21.97;79.62;101618.56;5252422;28;20025;-78
2022/08/24 00:47:15;;;;;;;20.75;18.52;;;;;;;22.13;78.64;101627.72;5253332;28;20114;-78
2022/08/24 00:49:55;;;;;;;20.42;18.13;;;;;;;22.02;79.51;101622.59;5252154;28;20024;-76
2022/08/24 00:52:32;;;;;;;21.83;18.67;;;;;;;21.80;81.08;101614.00;5251146;28;20017;-78
2022/08/24 00:55:16;;;;;;;21.47;18.30;;;;;;;21.92;80.13;101622.66;5256027;28;20376;-79
2022/08/24 00:57:51;;;;;;;22.77;20.48;;;;;;;21.95;80.21;101625.00;5253398;28;20158;-79
2022/08/24 01:00:26;;;;;;;21.20;19.10;;;;;;;21.88;80.59;101632.75;5250996;28;20025;-78
2022/08/24 01:03:03;;;;;;;22.50;19.57;;;;;;;21.79;81.34;101631.81;5251981;28;20039;-78
2022/08/24 01:05:36;;;;;;;21.92;19.88;;;;;;;21.76;81.67;101634.75;5252718;28;20057;-78
2022/08/24 01:08:10;;;;;;;22.13;19.95;;;;;;;21.79;81.09;101622.94;5250793;22;20025;-79
2022/08/24 01:10:46;;;;;;;22.02;19.88;;;;;;;21.45;83.17;101613.69;5159693;28;20035;-78
2022/08/24 01:13:18;;;;;;;23.00;20.80;;;;;;;21.56;83.22;101625.97;5171172;28;20038;-79
2022/08/24 01:15:51;;;;;;;24.20;21.80;;;;;;;21.63;82.75;101629.75;5170888;28;20027;-79
2022/08/24 01:21:25;;;;;;;24.40;21.73;;;;;;;21.49;82.43;101604.41;5170841;28;20533;-79
2022/08/24 01:23:59;;;;;;;24.37;21.87;;;;;;;21.58;82.93;101621.34;5170081;28;20653;-78
2022/08/24 01:26:38;;;;;;;23.27;20.88;;;;;;;21.56;83.42;101625.97;5170710;28;20042;-78
2022/08/24 01:29:14;;;;;;;24.37;22.07;;;;;;;21.51;83.28;101615.75;5171182;28;20098;-79
2022/08/24 01:31:46;;;;;;;24.93;22.37;;;;;;;21.31;84.41;101623.00;5170459;28;20027;-78
2022/08/24 01:34:17;;;;;;;25.77;22.53;;;;;;;21.44;83.96;101625.31;5169693;28;20022;-78
2022/08/24 01:36:54;;;;;;;24.83;22.47;;;;;;;21.29;85.32;101623.13;5169384;28;20042;-79
2022/08/24 01:39:31;;;;;;;26.43;23.67;;;;;;;21.46;84.73;101626.03;5170689;28;20027;-79
2022/08/24 01:42:03;;;;;;;25.90;23.23;;;;;;;21.26;86.19;101621.59;5170683;28;20441;-79
2022/08/24 01:44:37;;;;;;;23.73;21.23;;;;;;;21.30;84.80;101614.16;5170012;28;20110;-78
2022/08/24 01:47:11;;;;;;;24.08;21.20;;;;;;;21.21;86.30;101609.69;5170430;28;20038;-79
2022/08/24 01:49:46;;;;;;;29.10;23.02;;;;;;;21.24;85.89;101612.91;5170264;28;20118;-79
2022/08/24 01:52:22;;;;;;;25.23;22.77;;;;;;;21.22;86.67;101612.22;5169334;28;20486;-78
2022/08/24 01:54:53;;;;;;;29.40;24.47;;;;;;;21.03;86.88;101605.94;5170104;28;20030;-78
2022/08/24 01:57:25;;;;;;;26.17;23.60;;;;;;;20.98;87.69;101616.16;5167783;28;20030;-78
2022/08/24 01:59:57;;;;;;;26.70;24.00;;;;;;;21.08;87.48;101615.31;5170322;28;20115;-78
2022/08/24 02:02:29;;;;;;;26.30;23.60;;;;;;;21.00;88.06;101608.03;5169964;28;20462;-79
2022/08/24 02:05:01;;;;;;;25.50;23.10;;;;;;;20.75;89.05;101608.44;5169082;28;20026;-79
2022/08/24 02:07:32;;;;;;;27.87;22.83;;;;;;;21.07;86.43;101603.81;5169276;28;20786;-79
2022/08/24 02:10:10;;;;;;;25.03;22.47;;;;;;;20.85;88.45;101599.63;5170121;28;20504;-79
2022/08/24 02:12:44;;;;;;;24.97;22.30;;;;;;;20.89;88.95;101611.69;5173081;28;20106;-78
2022/08/24 02:15:15;;;;;;;22.70;20.27;;;;;;;20.86;88.08;101606.63;5169582;28;20552;-79
2022/08/24 02:17:48;;;;;;;21.87;19.67;;;;;;;20.53;90.71;101599.78;5170069;28;20038;-79
2022/08/24 02:20:20;;;;;;;20.97;18.80;;;;;;;20.59;89.43;101609.03;5169448;28;20415;-79
2022/08/24 02:22:53;;;;;;;21.80;19.67;;;;;;;20.80;87.13;101606.19;5169526;28;20050;-79
2022/08/24 02:25:24;;;;;;;21.23;19.13;;;;;;;20.70;88.00;101618.69;5169149;28;20027;-78
2022/08/24 02:27:57;;;;;;;23.57;19.83;;;;;;;20.83;87.85;101623.72;5170048;28;20081;-78
2022/08/24 02:30:30;;;;;;;23.13;20.70;;;;;;;20.77;88.36;101619.81;5168957;28;20041;-76
2022/08/24 02:33:01;;;;;;;19.93;17.80;;;;;;;20.70;87.98;101624.00;5170428;28;20540;-78
2022/08/24 02:35:33;;;;;;;22.70;20.43;;;;;;;20.68;87.89;101610.84;5169354;28;20353;-78
2022/08/24 02:38:04;;;;;;;21.13;19.00;;;;;;;20.63;88.70;101633.56;5168458;28;20027;-79
2022/08/24 02:40:36;;;;;;;23.33;20.83;;;;;;;20.60;89.38;101636.47;5169544;28;20031;-78
2022/08/24 02:43:08;;;;;;;22.13;19.93;;;;;;;20.61;89.48;101625.72;5169043;28;20026;-78
2022/08/24 02:45:42;;;;;;;23.50;21.10;;;;;;;20.67;88.80;101637.59;5169524;28;20102;-79
2022/08/24 02:48:14;;;;;;;;;;;;;;;21.03;83.89;101629.91;5167485;28;20047;-79
2022/08/24 02:50:48;;;;;;;23.03;20.60;;;;;;;20.41;92.26;101631.00;5169777;28;19921;-79
2022/08/24 02:53:20;;;;;;;26.90;21.95;;;;;;;20.44;92.16;101629.88;5167701;28;20447;-79
2022/08/24 02:55:51;;;;;;;25.03;21.77;;;;;;;20.29;93.92;101632.94;5169565;28;20030;-78
2022/08/24 02:58:23;;;;;;;24.13;21.73;;;;;;;20.35;93.81;101631.53;5169061;28;20429;-78
2022/08/24 03:00:54;;;;;;;23.63;21.17;;;;;;;20.29;93.46;101617.00;5169008;28;20074;-78
2022/08/24 03:03:25;;;;;;;24.30;21.93;;;;;;;20.18;95.05;101635.72;5169193;28;20034;-78
2022/08/24 03:05:56;;;;;;;23.40;21.10;;;;;;;20.13;95.00;101630.81;5167480;28;20462;-78
2022/08/24 03:08:28;;;;;;;23.93;21.53;;;;;;;20.21;94.95;101624.81;5167764;28;20070;-78
2022/08/24 03:10:59;;;;;;;23.23;21.00;;;;;;;20.02;96.48;101628.25;5168810;28;20033;-79
2022/08/24 03:13:31;;;;;;;23.50;21.03;;;;;;;20.14;95.26;101613.03;5169149;28;20051;-78
2022/08/24 03:16:03;;;;;;;24.63;22.13;;;;;;;20.07;96.96;101626.88;5167632;28;20073;-78
2022/08/24 03:18:37;;;;;;;24.45;22.15;;;;;;;20.03;97.70;101622.78;5168847;28;20072;-78
2022/08/24 03:21:09;;;;;;;27.80;22.73;;;;;;;19.98;98.83;101621.50;5169350;28;20450;-79
2022/08/24 03:23:40;;;;;;;24.33;22.03;;;;;;;20.01;98.67;101621.22;5167544;28;20023;-79
2022/08/24 03:26:12;;;;;;;24.93;22.43;;;;;;;20.22;96.60;101620.31;5169147;28;20041;-79
2022/08/24 03:28:44;;;;;;;24.43;22.13;;;;;;;19.92;99.23;101614.91;5167985;28;20444;-80
2022/08/24 03:31:16;;;;;;;24.20;20.93;;;;;;;20.00;96.92;101628.34;5169022;28;20109;-79
2022/08/24 03:33:48;;;;;;;23.90;21.37;;;;;;;20.06;96.95;101616.38;5168579;28;20113;-79
2022/08/24 03:36:19;;;;;;;23.53;20.77;;;;;;;19.95;97.76;101619.94;5168557;28;20035;-79
2022/08/24 03:38:50;;;;;;;23.27;21.17;;;;;;;19.92;96.83;101604.25;5168626;28;20050;-79
2022/08/24 03:41:22;;;;;;;22.67;20.37;;;;;;;20.10;95.97;101611.63;5167999;28;20650;-78
2022/08/24 03:43:55;;;;;;;21.70;19.43;;;;;;;19.92;96.38;101613.09;5170463;28;20428;-79
2022/08/24 03:46:28;;;;;;;22.20;20.20;;;;;;;19.91;97.07;101613.22;5171260;28;20343;-79
2022/08/24 03:48:59;;;;;;;22.80;20.60;;;;;;;19.99;95.44;101605.41;5169147;28;20089;-79
2022/08/24 03:51:30;;;;;;;22.20;20.10;;;;;;;20.00;96.04;101617.72;5167511;28;20031;-79
2022/08/24 03:54:05;;;;;;;20.93;18.83;;;;;;;19.99;95.68;101620.50;5168786;28;20019;-79
2022/08/24 03:56:37;;;;;;;22.17;20.13;;;;;;;19.80;98.19;101623.00;5168049;28;20035;-79
2022/08/24 03:59:09;;;;;;;22.77;20.37;;;;;;;19.83;97.96;101617.41;5168527;28;20031;-79
2022/08/24 04:01:40;;;;;;;23.17;20.97;;;;;;;19.93;96.99;101622.72;5167669;28;20406;-79
2022/08/24 04:04:11;;;;;;;23.13;20.83;;;;;;;19.95;96.51;101620.78;5168113;28;20031;-79
2022/08/24 04:06:45;;;;;;;22.73;20.43;;;;;;;19.89;96.93;101624.00;5154001;28;20062;-79
2022/08/24 04:09:17;;;;;;;23.33;21.13;;;;;;;19.82;98.07;101613.06;5146978;28;20050;-79
2022/08/24 04:11:49;;;;;;;22.93;20.63;;;;;;;19.71;98.39;101618.47;5148516;29;20564;-79
2022/08/24 04:14:20;;;;;;;22.03;20.03;;;;;;;19.68;100.00;101624.91;5148101;28;20036;-79
2022/08/24 04:16:52;;;;;;;23.53;21.10;;;;;;;19.72;100.00;101630.78;5148390;28;20829;-79
2022/08/24 04:19:24;;;;;;;22.97;20.67;;;;;;;19.79;100.00;101637.22;5148437;28;20024;-79
2022/08/24 04:21:57;;;;;;;21.40;19.33;;;;;;;19.82;100.00;101622.84;5151164;29;20590;-80
2022/08/24 04:24:29;;;;;;;22.23;20.10;;;;;;;19.80;100.00;101633.63;5152306;28;20032;-79
2022/08/24 04:27:00;;;;;;;23.50;21.13;;;;;;;19.59;100.00;101631.84;5151610;28;20023;-79
2022/08/24 04:29:32;;;;;;;23.27;21.10;;;;;;;19.53;100.00;101632.34;5152148;28;20023;-79
2022/08/24 04:32:04;;;;;;;22.80;20.70;;;;;;;19.52;100.00;101630.69;5151423;29;20019;-79
2022/08/24 04:34:35;;;;;;;22.83;20.53;;;;;;;19.54;100.00;101626.09;5151648;29;20027;-79
2022/08/24 04:37:06;;;;;;;22.20;19.97;;;;;;;19.42;100.00;101630.66;5150641;29;20035;-79
2022/08/24 04:39:38;;;;;;;23.20;21.00;;;;;;;19.45;100.00;101637.50;5151329;29;20033;-79
2022/08/24 04:42:10;;;;;;;23.03;21.07;;;;;;;19.31;100.00;101634.22;5151973;29;20023;-78
2022/08/24 04:44:41;;;;;;;22.43;20.07;;;;;;;19.36;100.00;101625.03;5149696;29;20050;-78
2022/08/24 04:47:13;;;;;;;22.53;20.13;;;;;;;19.45;100.00;101637.50;5151767;29;20024;-78
2022/08/24 04:49:44;;;;;;;22.70;20.43;;;;;;;19.39;100.00;101635.38;5151108;29;20387;-79
2022/08/24 04:52:15;;;;;;;23.23;21.10;;;;;;;19.41;100.00;101636.09;5150483;29;20433;-79
2022/08/24 04:54:46;;;;;;;22.50;20.33;;;;;;;19.33;100.00;101636.72;5156721;29;20527;-79
2022/08/24 04:57:18;;;;;;;22.47;20.17;;;;;;;19.46;100.00;101641.84;5151241;29;20027;-78
2022/08/24 04:59:49;;;;;;;22.70;19.37;;;;;;;19.51;100.00;101639.66;5150333;29;20019;-79
2022/08/24 05:02:21;;;;;;;21.33;19.17;;;;;;;19.48;100.00;101647.03;5150922;29;20065;-78
2022/08/24 05:04:55;;;;;;;21.43;19.43;;;;;;;19.38;100.00;101645.16;5151286;28;20023;-78
2022/08/24 05:07:28;;;;;;;20.90;18.83;;;;;;;19.39;100.00;101652.13;5150582;28;20381;-78
2022/08/24 05:10:00;;;;;;;21.93;19.43;;;;;;;19.30;100.00;101648.47;5151070;28;20082;-78
2022/08/24 05:12:31;;;;;;;21.90;20.00;;;;;;;19.36;100.00;101646.28;5150908;29;20071;-79
2022/08/24 05:15:04;;;;;;;22.83;20.73;;;;;;;19.47;100.00;101646.19;5151051;29;20068;-77
2022/08/24 05:17:35;;;;;;;20.17;18.10;;;;;;;19.52;100.00;101651.09;5150546;29;20036;-77
2022/08/24 05:20:08;;;;;;;22.27;20.00;;;;;;;19.21;100.00;101646.59;5151218;28;20382;-78
2022/08/24 05:22:39;;;;;;;23.33;21.20;;;;;;;19.28;100.00;101647.75;5150912;29;20024;-77
2022/08/24 05:25:10;;;;;;;22.97;20.43;;;;;;;19.33;100.00;101648.22;5150966;29;20082;-77
2022/08/24 05:27:42;;;;;;;22.77;20.60;;;;;;;19.39;100.00;101652.13;5153892;29;20525;-77
2022/08/24 05:30:14;;;;;;;23.67;20.83;;;;;;;19.36;100.00;101657.72;5151209;28;20564;-77
2022/08/24 05:32:45;;;;;;;23.53;21.17;;;;;;;19.34;100.00;101660.50;5150819;28;20466;-77
2022/08/24 05:35:17;;;;;;;24.10;21.37;;;;;;;19.34;100.00;101655.19;5150319;28;20482;-78
2022/08/24 05:37:48;;;;;;;25.23;22.87;;;;;;;19.39;100.00;101661.94;5148411;29;20024;-77
2022/08/24 05:40:20;;;;;;;24.80;22.33;;;;;;;19.44;100.00;101670.34;5149913;29;20023;-78
2022/08/24 05:42:51;;;;;;;26.00;23.50;;;;;;;19.50;100.00;101664.50;5150881;28;20031;-77
2022/08/24 05:45:22;;;;;;;25.53;22.93;;;;;;;19.51;100.00;101671.53;5150307;29;20023;-77
2022/08/24 05:47:54;;;;;;;27.03;24.43;;;;;;;19.45;100.00;101670.22;5149895;28;20041;-78
2022/08/24 05:50:25;;;;;;;27.63;24.80;;;;;;;19.66;100.00;101665.84;5149994;28;20019;-77
2022/08/24 05:52:57;;;;;;;33.00;24.77;;;;;;;19.47;100.00;101654.16;5148957;29;20019;-78
2022/08/24 05:55:29;;;;;;;29.73;26.77;;;;;;;19.60;100.00;101664.59;5149831;29;20035;-78
2022/08/24 05:58:00;;;;;;;32.47;28.83;;;;;;;19.70;100.00;101669.94;5148452;29;20032;-78
2022/08/24 06:00:32;;;;;;;33.63;30.37;;;;;;;19.65;100.00;101661.53;5149861;29;20055;-77
2022/08/24 06:03:03;;;;;;;35.47;31.70;;;;;;;19.68;100.00;101666.56;5149990;28;20039;-78
2022/08/24 06:05:39;;;;;;;36.27;32.90;;;;;;;19.89;100.00;101660.34;5149152;29;20042;-78
2022/08/24 06:08:10;;;;;;;37.57;33.77;;;;;;;19.85;100.00;101661.59;5148832;28;20038;-78
2022/08/24 06:10:46;;;;;;;37.53;33.53;;;;;;;19.95;100.00;101660.66;5149277;29;20027;-78
2022/08/24 06:13:17;;;;;;;36.57;32.87;;;;;;;20.08;100.00;101664.94;5148310;29;20075;-78
2022/08/24 06:15:49;;;;;;;37.23;33.53;;;;;;;20.01;100.00;101667.28;5149387;29;20074;-79
2022/08/24 06:18:20;;;;;;;38.23;34.57;;;;;;;20.15;100.00;101678.53;5149633;29;20027;-79
2022/08/24 06:20:51;;;;;;;38.33;34.43;;;;;;;20.17;100.00;101676.59;5149418;29;20052;-79
2022/08/24 06:23:22;;;;;;;41.23;34.43;;;;;;;20.18;100.00;101678.25;5148697;29;20494;-79
2022/08/24 06:28:46;;;;;;;37.07;32.67;;;;;;;20.19;100.00;101675.47;5149775;29;20043;-78
2022/08/24 06:31:18;;;;;;;35.23;31.53;;;;;;;20.31;100.00;101684.19;5147501;29;20019;-79
2022/08/24 06:33:50;;;;;;;34.97;31.57;;;;;;;20.40;100.00;101690.50;5149521;29;20142;-79
2022/08/24 06:36:21;;;;;;;35.17;31.47;;;;;;;20.39;100.00;101686.16;5148031;28;20110;-79
2022/08/24 06:38:53;;;;;;;35.40;31.77;;;;;;;20.43;100.00;101686.72;5149245;29;20023;-79
2022/08/24 06:41:25;;;;;;;36.57;32.27;;;;;;;20.54;100.00;101686.59;5149424;28;20062;-78
2022/08/24 06:43:56;;;;;;;32.23;28.87;;;;;;;20.59;100.00;101694.19;5148940;28;20037;-78
2022/08/24 06:46:27;;;;;;;36.60;32.07;;;;;;;20.61;100.00;101694.03;5149080;29;20061;-78
2022/08/24 06:48:58;;;;;;;32.23;29.17;;;;;;;20.67;100.00;101690.81;5148811;29;20118;-78
2022/08/24 06:51:31;;;;;;;34.60;31.07;;;;;;;20.74;100.00;101696.44;5148148;29;20478;-78
2022/08/24 06:54:02;;;;;;;37.37;30.83;;;;;;;20.75;100.00;101690.97;5148847;28;20031;-78
2022/08/24 06:56:36;;;;;;;34.97;31.40;;;;;;;20.87;100.00;101698.84;5149020;29;20033;-79
2022/08/24 06:59:07;;;;;;;31.40;28.25;;;;;;;20.95;100.00;101696.34;5149083;29;20031;-78
2022/08/24 07:01:38;;;;;;;36.17;28.87;;;;;;;21.05;100.00;101693.66;5148079;28;20146;-78
2022/08/24 07:04:10;;;;;;;34.37;28.03;;;;;;;21.07;100.00;101702.34;5149069;29;20450;-78
2022/08/24 07:06:41;;;;;;;36.33;27.17;;;;;;;21.18;100.00;101705.84;5147518;29;20039;-78
2022/08/24 07:09:13;;;;;;;39.37;27.33;;;;;;;21.19;100.00;101703.03;5148608;28;20114;-78
2022/08/24 07:11:44;;;;;;;39.17;28.00;;;;;;;21.31;100.00;101703.72;5148177;29;20470;-79
2022/08/24 07:14:15;;;;;;;31.50;25.03;;;;;;;21.42;100.00;101712.56;5148636;28;20023;-79
2022/08/24 07:16:47;;;;;;;24.70;22.13;;;;;;;21.47;100.00;101710.31;5148972;28;20463;-79
2022/08/24 07:19:18;;;;;;;23.33;19.88;;;;;;;21.66;100.00;101717.41;5146896;29;20035;-79
2022/08/24 07:21:55;;;;;;;24.60;19.50;;;;;;;21.83;100.00;101720.34;5147682;28;20130;-79
2022/08/24 07:24:26;;;;;;;31.45;21.15;;;;;;;21.96;100.00;101712.00;5148180;29;20086;-79
2022/08/24 07:26:57;;;;;;;19.83;17.40;;;;;;;22.27;100.00;101716.25;5148893;29;20040;-79
2022/08/24 07:29:28;;;;;;;23.77;18.23;;;;;;;22.64;100.00;101712.66;5148115;29;20435;-80
2022/08/24 07:32:00;;;;;;;22.90;16.42;;;;;;;22.83;100.00;101703.66;5149023;29;20115;-78
2022/08/24 07:34:32;;;;;;;24.88;15.90;;;;;;;23.00;97.32;101706.50;5147903;28;20027;-79
2022/08/24 07:37:04;;;;;;;17.63;13.75;;;;;;;23.30;94.12;101717.75;5149899;29;20039;-78
2022/08/24 07:39:35;;;;;;;19.13;12.68;;;;;;;23.71;89.50;101718.19;5147636;29;20034;-79
2022/08/24 07:42:07;;;;;;;18.70;12.73;;;;;;;24.09;86.34;101707.19;5148294;29;20031;-78
2022/08/24 07:44:38;;;;;;;19.45;13.40;;;;;;;24.86;81.85;101708.91;5146919;29;20039;-79
2022/08/24 07:47:09;;;;;;;15.55;12.38;;;;;;;25.55;77.95;101709.56;5148106;29;20032;-79
2022/08/24 07:49:41;;;;;;;22.58;12.45;;;;;;;26.08;75.48;101718.94;5148374;29;20031;-79
2022/08/24 07:52:12;;;;;;;15.70;9.75;;;;;;;26.69;70.59;101720.16;5146124;29;20019;-79
2022/08/24 07:54:44;;;;;;;15.30;8.48;;;;;;;27.21;63.53;101715.06;5151508;28;20042;-79
2022/08/24 07:57:15;;;;;;;13.70;7.53;;;;;;;28.30;61.11;101724.59;5150613;29;20042;-79
2022/08/24 07:59:46;;;;;;;11.60;7.90;;;;;;;28.86;51.94;101712.34;5152173;29;20031;-79
2022/08/24 08:02:18;;;;;;;10.43;5.90;;;;;;;29.03;49.65;101717.50;5150943;29;20023;-79
2022/08/24 08:04:49;;;;;;;19.92;7.72;;;;;;;29.79;48.03;101720.50;5151927;28;20029;-79
2022/08/24 08:07:20;;;;;;;15.30;7.68;;;;;;;30.53;47.77;101717.22;5151046;29;20034;-79
2022/08/24 08:09:52;;;;;;;13.45;6.88;;;;;;;31.18;45.80;101728.50;5150510;29;20039;-78
2022/08/24 08:12:23;;;;;;;12.18;6.07;;;;;;;31.39;45.34;101722.88;5152052;29;20509;-79
2022/08/24 08:14:56;;;;;;;13.30;5.25;;;;;;;31.42;43.65;101726.22;5150545;29;20078;-80
2022/08/24 08:17:27;;;;;;;13.60;6.10;;;;;;;31.79;43.44;101715.69;5151640;28;20094;-78
2022/08/24 08:19:58;;;;;;;10.18;5.47;;;;;;;31.54;44.06;101718.28;5152028;29;20027;-78
2022/08/24 08:25:20;;;;;;;11.55;4.80;;;;;;;32.68;41.30;101733.19;5151186;29;20035;-78
2022/08/24 08:27:51;;;;;;;10.98;5.60;;;;;;;33.13;40.26;101728.66;5150518;29;20518;-79
2022/08/24 08:30:23;;;;;;;14.45;5.68;;;;;;;32.77;39.45;101731.03;5151504;29;20054;-78
2022/08/24 08:32:54;;;;;;;10.32;4.63;;;;;;;33.67;39.26;101733.53;5151397;29;20028;-78
2022/08/24 08:35:25;;;;;;;21.80;6.65;;;;;;;33.85;37.46;101728.31;5151558;29;20027;-79
2022/08/24 08:37:57;;;;;;;11.27;4.60;;;;;;;34.66;36.15;101727.22;5149093;29;20027;-79
2022/08/24 08:40:44;;;;;;;10.30;4.00;;;;;;;34.93;36.20;101731.41;5149918;29;20034;-78
2022/08/24 08:43:28;;;;;;;8.30;4.10;;;;;;;34.76;36.69;101727.50;5150603;29;20027;-78
2022/08/24 08:46:05;;;;;;;9.65;3.55;;;;;;;34.88;35.34;101737.53;5151669;29;20031;-79
2022/08/24 08:49:02;;;;;;;9.23;3.40;;;;;;;35.27;36.92;101741.72;5151546;29;20450;-79
2022/08/24 08:51:42;;;;;;;10.88;3.45;;;;;;;35.75;34.14;101738.91;5149553;28;20035;-79
2022/08/24 08:54:30;;;;;;;7.32;3.80;;;;;;;35.54;35.31;101731.13;5150855;29;20031;-79
2022/08/24 08:57:19;;;;;;;9.60;3.05;;;;;;;35.94;34.26;101728.69;5151092;28;20038;-78
2022/08/24 08:59:56;;;;;;;11.20;3.20;;;;;;;36.14;31.83;101733.69;5150933;28;20114;-78
2022/08/24 09:02:37;;;;;;;10.55;3.45;;;;;;;35.92;32.21;101728.91;5150810;29;20034;-78
2022/08/24 09:05:38;;;;;;;10.88;2.75;;;;;;;35.93;34.27;101740.66;5150103;28;20036;-79
2022/08/24 09:08:48;;;;;;;13.35;3.00;;;;;;;35.06;34.10;101736.63;5149020;28;20023;-78
2022/08/24 09:11:40;;;;;;;6.20;2.17;;;;;;;34.93;35.06;101743.09;5150535;28;20110;-78
2022/08/24 09:14:49;;;;;;;9.90;2.53;;;;;;;34.68;34.62;101741.41;5150479;28;20510;-79
2022/08/24 09:17:43;;;;;;;8.82;2.80;;;;;;;34.43;34.17;101726.09;5150234;28;20498;-79
2022/08/24 09:20:21;;;;;;;7.13;1.70;;;;;;;34.24;33.82;101733.50;5149331;28;20024;-79
2022/08/24 09:23:42;;;;;;;8.25;2.38;;;;;;;34.25;35.12;101732.41;5149985;29;20035;-79
2022/08/24 09:26:41;;;;;;;6.93;1.70;;;;;;;34.87;34.74;101739.47;5149434;29;20110;-78
2022/08/24 09:29:29;;;;;;;7.88;2.35;;;;;;;35.45;32.34;101736.13;5149492;28;20395;-79
2022/08/24 09:32:09;;;;;;;12.23;2.05;;;;;;;35.27;31.76;101741.72;5150441;29;20078;-78
2022/08/24 09:34:58;;;;;;;4.82;1.58;;;;;;;36.24;32.53;101734.94;5151744;29;20039;-78
2022/08/24 09:37:40;;;;;;;7.35;2.08;;;;;;;36.67;31.18;101740.88;5149083;29;20031;-78
2022/08/24 09:40:35;;;;;;;5.30;1.73;;;;;;;37.50;30.61;101747.56;5152537;29;20042;-78
2022/08/24 09:43:56;;;;;;;3.22;1.10;;;;;;;38.06;30.37;101723.06;5150319;29;20055;-79
2022/08/24 09:46:45;;;;;;;7.03;1.60;;;;;;;37.75;29.70;101742.69;5148410;28;20727;-78
2022/08/24 09:49:39;;;;;;;5.95;1.67;;;;;;;37.82;28.97;101745.22;5149875;29;20597;-79
2022/08/24 09:52:32;;;;;;;6.82;1.70;;;;;;;38.18;28.44;101736.56;5149479;28;20037;-78
2022/08/24 09:55:25;;;;;;;5.25;1.20;;;;;;;38.28;28.07;101750.34;5153521;28;20245;-78
2022/08/24 09:57:59;;;;;;;;;;;;;;;39.63;28.18;101744.13;5151168;28;20037;-78
2022/08/24 10:00:43;;;;;;;3.92;1.52;;;;;;;39.47;26.83;101738.59;5149864;29;20441;-78
2022/08/24 10:03:59;;;;;;;4.60;1.65;;;;;;;40.11;27.10;101743.22;5149663;29;20027;-78
2022/08/24 10:06:44;;;;;;;3.47;1.40;;;;;;;39.26;27.16;101745.94;5106599;29;20516;-78
2022/08/24 10:09:37;;;;;;;2.42;1.02;;;;;;;39.63;25.56;101741.38;5106738;29;20215;-79
2022/08/24 10:12:34;;;;;;;3.65;1.00;;;;;;;39.63;27.26;101733.16;5142312;29;20093;-78
2022/08/24 10:15:08;;;;;;;3.75;1.20;;;;;;;38.90;27.13;101732.81;5149596;29;20478;-78
2022/08/24 10:18:09;;;;;;;3.90;1.30;;;;;;;39.31;27.56;101733.06;5148269;28;20031;-78
2022/08/24 10:21:07;;;;;;;3.90;1.10;;;;;;;39.55;26.62;101727.09;5148250;29;20074;-78
2022/08/24 10:24:03;;;;;;;7.50;1.70;;;;;;;39.22;26.01;101726.47;5147892;29;20478;-78
2022/08/24 10:26:46;;;;;;;6.00;1.30;;;;;;;37.57;28.28;101719.22;5149625;28;20709;-78
2022/08/24 10:29:31;;;;;;;7.00;1.80;;;;;;;36.73;29.17;101717.22;5147934;29;20023;-78
2022/08/24 10:32:21;;;;;;;5.38;1.15;;;;;;;36.65;28.91;101722.03;5149212;29;20090;-78
2022/08/24 10:35:04;;;;;;;2.20;1.02;;;;;;;36.44;29.65;101720.88;5148284;29;20035;-78
2022/08/24 10:39:39;;;;;;;;;;;;;;;37.18;29.12;101718.16;5148751;28;20035;-78
2022/08/24 10:41:00;;;;;;;5.13;1.58;;;;;;;35.75;30.01;101723.41;5149214;29;19918;-77
2022/08/24 10:43:41;;;;;;;5.38;1.30;;;;;;;35.73;30.84;101720.09;5148353;29;20062;-78
2022/08/24 10:46:37;;;;;;;5.45;1.45;;;;;;;36.12;30.33;101711.28;5149470;28;20035;-78
2022/08/24 10:49:38;;;;;;;2.47;1.23;;;;;;;36.50;29.38;101711.69;5149238;29;20031;-78
2022/08/24 10:52:31;;;;;;;2.85;1.30;;;;;;;36.71;29.71;101708.47;5129009;29;20478;-78
2022/08/24 10:55:14;;;;;;;3.38;1.73;;;;;;;36.69;29.33;101706.81;5147478;29;20111;-78
2022/08/24 10:58:23;;;;;;;4.20;1.25;;;;;;;37.31;29.01;101705.25;5152797;28;20336;-78
2022/08/24 11:01:02;;;;;;;6.07;1.40;;;;;;;36.88;28.59;101703.84;5148748;28;20023;-78
2022/08/24 11:03:47;;;;;;;3.30;1.40;;;;;;;37.11;29.43;101707.44;5149163;28;20035;-78
2022/08/24 11:06:20;;;;;;;4.63;1.40;;;;;;;37.70;28.05;101699.72;5147523;29;20027;-79
2022/08/24 11:09:15;;;;;;;4.13;1.30;;;;;;;37.42;28.91;101698.84;5148559;28;20525;-78
2022/08/24 11:11:48;;;;;;;6.28;1.60;;;;;;;37.02;27.90;101692.56;5143638;29;20066;-78
2022/08/24 11:14:30;;;;;;;;;;;;;;;37.86;28.24;101698.00;5149103;28;20023;-79
2022/08/24 11:17:23;;;;;;;5.80;1.27;;;;;;;37.09;28.80;101671.38;5148898;28;19914;-78
2022/08/24 11:19:56;;;;;;;3.55;1.42;;;;;;;36.25;29.81;101690.25;5147265;29;20503;-78
2022/08/24 11:22:29;;;;;;;;;;;;;;;37.39;28.67;101686.53;5148226;29;20483;-78
2022/08/24 11:25:22;;;;;;;8.90;1.35;;;;;;;35.77;29.43;101685.00;5148477;28;19918;-78
2022/08/24 11:28:03;;;;;;;3.10;1.27;;;;;;;36.49;29.07;101685.50;5146360;29;20043;-78
2022/08/24 11:30:39;;;;;;;4.22;1.55;;;;;;;36.16;29.74;101687.09;5148780;28;20035;-78
2022/08/24 11:33:26;;;;;;;5.63;1.67;;;;;;;36.17;28.95;101675.94;5148157;29;20035;-78
2022/08/24 11:35:59;;;;;;;3.65;1.73;;;;;;;35.98;30.33;101675.34;5146243;28;20398;-78
2022/08/24 11:38:33;;;;;;;4.88;1.55;;;;;;;34.90;30.37;101688.31;5146504;29;20478;-78
2022/08/24 11:41:27;;;;;;;2.80;1.27;;;;;;;35.62;30.76;101664.56;5148498;28;20068;-79
2022/08/24 11:44:37;;;;;;;;;;;;;;;36.20;30.11;101686.34;5147675;29;20019;-79
2022/08/24 11:47:26;;;;;;;6.72;1.50;;;;;;;35.15;30.33;101685.38;5105778;29;19915;-78
2022/08/24 11:50:07;;;;;;;4.05;1.63;;;;;;;35.09;30.59;101678.16;5105623;29;20075;-78
2022/08/24 11:53:04;;;;;;;6.18;1.83;;;;;;;35.61;29.91;101671.06;5136910;28;20094;-79
2022/08/24 11:55:54;;;;;;;2.85;1.73;;;;;;;34.68;31.13;101673.41;5148305;28;20027;-78
2022/08/24 11:58:44;;;;;;;3.88;1.60;;;;;;;35.02;31.59;101672.84;5148101;29;20031;-78
2022/08/24 12:01:19;;;;;;;3.63;1.67;;;;;;;34.16;32.87;101664.78;5147820;29;20073;-78
2022/08/24 12:04:00;;;;;;;6.78;2.00;;;;;;;34.84;31.73;101676.53;5148595;29;20518;-78